Terminal Aerodrome Forecast
Issued by NWS Cleveland, OH

Home | Current Version | Previous Version | Text Only | Print | Product List | Glossary Off
Versions: 1 2 3 4 5 6 7 8 9 10 11 12 13 14 15

701
FTUS41 KCLE 161739
TAFERI
TAF
KERI 161739Z 1618/1718 36007KT P6SM SKC
     FM170100 08005KT P6SM SCT250
     FM170400 14007KT P6SM BKN250
     FM171600 15008KT P6SM VCSH SCT060 BKN090=

USA.gov is the U.S. government's official web portal to all federal, state and local government web resources and services.